PWSweather.com
Personal Weather Stations
Station Observations
KWAGIGHA17
Gig Harbor, WA 98332

Gig Harbor, WA 98332

Lat: 47.35323, Lon: -122.58817

Elevation: 318

Station Type: Davis VP2 Wireless

http://www.gigharborweather.com

Latest ConditionsUpdated 5:10:01 AM PDT Thursday, Jun 29, 2017
Currently Today's Max Today's Min Today's Average
Temperature 50.3°F10.2°C 55.1°F12.8°C 50.3°F10.2°C 52.2°F11.2°C
Dew Point 46.6°F8.1°C 49.0°F9.4°C 46.6°F8.1°C 47.7°F8.7°C
Winds Calm Calm 1.2 mph SW1.9 kmh SW - 0.0 mph 0.0 kmh
Wind Gusts -- 2.3 mph3.7 kmh - -
Humidity 87% 87% 80% 85%
Pressure 30.11 in1019.6 mb 30.11 in1019.6 mb 30.07 in1018.3 mb -
Hour Temp Dew Point Humidity Winds Wind Gusts Pressure Precip Precip Rate Daily Precip Total
05:10 AM 50.3°F10.2°C 46.6°F8.1°C 87% Calm Calm -- 30.11 in1019.6 mb - 0.00 in0.0 mm 0.00 in0.0 mm
05:00 AM 50.4°F10.2°C 46.7°F8.2°C 87% Calm Calm -- 30.11 in1019.6 mb - 0.00 in0.0 mm 0.00 in0.0 mm
04:50 AM 50.5°F10.3°C 46.8°F8.2°C 87% Calm Calm -- 30.10 in1019.3 mb - 0.00 in0.0 mm 0.00 in0.0 mm
04:40 AM 50.6°F10.3°C 46.9°F8.3°C 87% Calm Calm -- 30.10 in1019.3 mb - 0.00 in0.0 mm 0.00 in0.0 mm
04:30 AM 50.8°F10.4°C 46.8°F8.2°C 86% Calm Calm -- 30.10 in1019.3 mb - 0.00 in0.0 mm 0.00 in0.0 mm
04:20 AM 50.9°F10.5°C 46.9°F8.3°C 86% Calm Calm -- 30.10 in1019.3 mb - 0.00 in0.0 mm 0.00 in0.0 mm
04:10 AM 51.1°F10.6°C 47.4°F8.6°C 87% Calm Calm -- 30.09 in1019.0 mb - 0.00 in0.0 mm 0.00 in0.0 mm
04:00 AM 51.2°F10.7°C 47.5°F8.6°C 87% Calm Calm -- 30.09 in1019.0 mb - 0.00 in0.0 mm 0.00 in0.0 mm
03:50 AM 51.3°F10.7°C 47.6°F8.7°C 87% Calm Calm -- 30.09 in1019.0 mb - 0.00 in0.0 mm 0.00 in0.0 mm
03:40 AM 51.3°F10.7°C 47.6°F8.7°C 87% Calm Calm -- 30.09 in1019.0 mb - 0.00 in0.0 mm 0.00 in0.0 mm
03:30 AM 51.4°F10.8°C 47.4°F8.6°C 86% Calm Calm -- 30.08 in1018.6 mb - 0.00 in0.0 mm 0.00 in0.0 mm
03:20 AM 51.3°F10.7°C 47.3°F8.5°C 86% Calm Calm -- 30.08 in1018.6 mb - 0.00 in0.0 mm 0.00 in0.0 mm
03:10 AM 51.4°F10.8°C 47.4°F8.6°C 86% Calm Calm -- 30.08 in1018.6 mb - 0.00 in0.0 mm 0.00 in0.0 mm
03:00 AM 51.5°F10.8°C 47.5°F8.6°C 86% Calm Calm -- 30.08 in1018.6 mb - 0.00 in0.0 mm 0.00 in0.0 mm
02:50 AM 51.7°F10.9°C 47.6°F8.7°C 86% Calm Calm 1.2 mph1.9 kmh 30.08 in1018.6 mb - 0.00 in0.0 mm 0.00 in0.0 mm
02:40 AM 51.8°F11.0°C 47.4°F8.6°C 85% Calm Calm -- 30.08 in1018.6 mb - 0.00 in0.0 mm 0.00 in0.0 mm
02:30 AM 51.9°F11.1°C 47.6°F8.7°C 85% Calm Calm -- 30.08 in1018.6 mb - 0.00 in0.0 mm 0.00 in0.0 mm
02:20 AM 52.1°F11.2°C 47.7°F8.7°C 85% Calm Calm -- 30.08 in1018.6 mb - 0.00 in0.0 mm 0.00 in0.0 mm
02:10 AM 52.3°F11.3°C 47.9°F8.8°C 85% Calm Calm -- 30.08 in1018.6 mb - 0.00 in0.0 mm 0.00 in0.0 mm
02:00 AM 52.5°F11.4°C 47.8°F8.8°C 84% Calm Calm -- 30.08 in1018.6 mb - 0.00 in0.0 mm 0.00 in0.0 mm
01:50 AM 52.6°F11.4°C 47.9°F8.8°C 84% Calm Calm -- 30.07 in1018.3 mb - 0.00 in0.0 mm 0.00 in0.0 mm
01:40 AM 52.8°F11.6°C 48.1°F8.9°C 84% Calm Calm -- 30.07 in1018.3 mb - 0.00 in0.0 mm 0.00 in0.0 mm
01:30 AM 52.9°F11.6°C 48.2°F9.0°C 84% Calm Calm 2.3 mph3.7 kmh 30.07 in1018.3 mb - 0.00 in0.0 mm 0.00 in0.0 mm
01:20 AM 53.1°F11.7°C 48.4°F9.1°C 84% 1.2 mph SW1.9 kmh SW 2.3 mph3.7 kmh 30.07 in1018.3 mb - 0.00 in0.0 mm 0.00 in0.0 mm
01:10 AM 53.3°F11.8°C 48.3°F9.1°C 83% Calm Calm 1.2 mph1.9 kmh 30.07 in1018.3 mb - 0.00 in0.0 mm 0.00 in0.0 mm
01:00 AM 53.5°F11.9°C 48.1°F8.9°C 82% Calm Calm -- 30.07 in1018.3 mb - 0.00 in0.0 mm 0.00 in0.0 mm
12:50 AM 53.8°F12.1°C 48.4°F9.1°C 82% Calm Calm 1.2 mph1.9 kmh 30.07 in1018.3 mb - 0.00 in0.0 mm 0.00 in0.0 mm
12:40 AM 54.2°F12.3°C 48.5°F9.2°C 81% Calm Calm -- 30.07 in1018.3 mb - 0.00 in0.0 mm 0.00 in0.0 mm
12:30 AM 54.4°F12.4°C 48.7°F9.3°C 81% Calm Calm -- 30.07 in1018.3 mb - 0.00 in0.0 mm 0.00 in0.0 mm
12:20 AM 54.7°F12.6°C 49.0°F9.4°C 81% Calm Calm -- 30.07 in1018.3 mb - 0.00 in0.0 mm 0.00 in0.0 mm
12:10 AM 54.9°F12.7°C 48.8°F9.3°C 80% Calm Calm -- 30.07 in1018.3 mb - 0.00 in0.0 mm 0.00 in0.0 mm
12:00 AM 55.1°F12.8°C 49.0°F9.4°C 80% Calm Calm -- 30.07 in1018.3 mb - 0.00 in0.0 mm 0.00 in0.0 mm